sensor_id;sensor_type;location;lat;lon;timestamp;P1;durP1;ratioP1;P2;durP2;ratioP2
583;SDS011;27024;54.068;12.116;2023-02-03T00:01:59;6.93;;;1.42;;
583;SDS011;27024;54.068;12.116;2023-02-03T00:04:26;5.97;;;1.42;;
583;SDS011;27024;54.068;12.116;2023-02-03T00:06:52;9.70;;;1.65;;
583;SDS011;27024;54.068;12.116;2023-02-03T00:09:19;15.00;;;2.35;;
583;SDS011;27024;54.068;12.116;2023-02-03T00:11:46;5.75;;;1.88;;
583;SDS011;27024;54.068;12.116;2023-02-03T00:14:13;9.50;;;1.77;;
583;SDS011;27024;54.068;12.116;2023-02-03T00:16:40;11.48;;;2.00;;
583;SDS011;27024;54.068;12.116;2023-02-03T00:19:07;11.48;;;1.95;;
583;SDS011;27024;54.068;12.116;2023-02-03T00:21:34;9.32;;;2.40;;
583;SDS011;27024;54.068;12.116;2023-02-03T00:24:00;10.13;;;2.55;;
583;SDS011;27024;54.068;12.116;2023-02-03T00:26:27;9.65;;;2.63;;
583;SDS011;27024;54.068;12.116;2023-02-03T00:28:54;11.65;;;2.65;;
583;SDS011;27024;54.068;12.116;2023-02-03T00:31:22;8.68;;;2.35;;
583;SDS011;27024;54.068;12.116;2023-02-03T00:33:54;11.73;;;3.03;;
583;SDS011;27024;54.068;12.116;2023-02-03T00:36:23;9.57;;;2.92;;
583;SDS011;27024;54.068;12.116;2023-02-03T00:38:50;9.43;;;2.95;;
583;SDS011;27024;54.068;12.116;2023-02-03T00:41:17;8.75;;;3.13;;
583;SDS011;27024;54.068;12.116;2023-02-03T00:43:45;9.50;;;2.70;;
583;SDS011;27024;54.068;12.116;2023-02-03T00:46:12;5.63;;;2.53;;
583;SDS011;27024;54.068;12.116;2023-02-03T00:48:39;9.90;;;2.88;;
583;SDS011;27024;54.068;12.116;2023-02-03T00:51:07;6.40;;;2.78;;
583;SDS011;27024;54.068;12.116;2023-02-03T00:53:34;8.35;;;2.72;;
583;SDS011;27024;54.068;12.116;2023-02-03T00:56:01;8.18;;;2.17;;
583;SDS011;27024;54.068;12.116;2023-02-03T00:58:28;6.93;;;2.67;;
583;SDS011;27024;54.068;12.116;2023-02-03T01:00:55;6.82;;;3.03;;
583;SDS011;27024;54.068;12.116;2023-02-03T01:03:22;6.07;;;2.20;;
583;SDS011;27024;54.068;12.116;2023-02-03T01:05:49;5.65;;;2.28;;
583;SDS011;27024;54.068;12.116;2023-02-03T01:08:16;6.60;;;2.28;;
583;SDS011;27024;54.068;12.116;2023-02-03T01:10:43;6.88;;;2.00;;
583;SDS011;27024;54.068;12.116;2023-02-03T01:13:10;5.15;;;1.67;;
583;SDS011;27024;54.068;12.116;2023-02-03T01:15:37;4.88;;;1.83;;
583;SDS011;27024;54.068;12.116;2023-02-03T01:18:04;4.85;;;1.75;;
583;SDS011;27024;54.068;12.116;2023-02-03T01:20:30;6.63;;;2.17;;
583;SDS011;27024;54.068;12.116;2023-02-03T01:22:57;5.78;;;2.05;;
583;SDS011;27024;54.068;12.116;2023-02-03T01:25:24;4.85;;;1.77;;
583;SDS011;27024;54.068;12.116;2023-02-03T01:27:51;4.18;;;1.50;;
583;SDS011;27024;54.068;12.116;2023-02-03T01:30:18;5.07;;;1.70;;
583;SDS011;27024;54.068;12.116;2023-02-03T01:32:46;4.20;;;1.33;;
583;SDS011;27024;54.068;12.116;2023-02-03T01:35:13;5.60;;;1.42;;
583;SDS011;27024;54.068;12.116;2023-02-03T01:37:40;4.35;;;1.80;;
583;SDS011;27024;54.068;12.116;2023-02-03T01:40:07;3.90;;;1.13;;
583;SDS011;27024;54.068;12.116;2023-02-03T01:42:34;4.63;;;1.58;;
583;SDS011;27024;54.068;12.116;2023-02-03T01:45:01;3.85;;;1.60;;
583;SDS011;27024;54.068;12.116;2023-02-03T01:50:20;5.93;;;2.20;;
583;SDS011;27024;54.068;12.116;2023-02-03T01:52:58;2.80;;;0.95;;
583;SDS011;27024;54.068;12.116;2023-02-03T01:55:39;7.53;;;1.52;;
583;SDS011;27024;54.068;12.116;2023-02-03T01:58:17;3.58;;;1.38;;
583;SDS011;27024;54.068;12.116;2023-02-03T02:00:49;3.60;;;1.38;;
583;SDS011;27024;54.068;12.116;2023-02-03T02:03:16;3.20;;;1.30;;
583;SDS011;27024;54.068;12.116;2023-02-03T02:05:47;4.28;;;1.52;;
583;SDS011;27024;54.068;12.116;2023-02-03T02:08:18;4.05;;;1.85;;
583;SDS011;27024;54.068;12.116;2023-02-03T02:10:48;3.97;;;1.50;;
583;SDS011;27024;54.068;12.116;2023-02-03T02:13:16;4.07;;;1.30;;
583;SDS011;27024;54.068;12.116;2023-02-03T02:21:15;2.65;;;0.93;;
583;SDS011;27024;54.068;12.116;2023-02-03T02:24:13;4.57;;;1.13;;
583;SDS011;27024;54.068;12.116;2023-02-03T02:44:16;3.47;;;0.80;;
583;SDS011;27024;54.068;12.116;2023-02-03T02:47:04;2.63;;;1.00;;
583;SDS011;27024;54.068;12.116;2023-02-03T02:49:42;3.55;;;1.00;;
583;SDS011;27024;54.068;12.116;2023-02-03T02:52:21;3.45;;;1.30;;
583;SDS011;27024;54.068;12.116;2023-02-03T02:54:51;4.82;;;1.23;;
583;SDS011;27024;54.068;12.116;2023-02-03T02:57:20;4.95;;;1.40;;
583;SDS011;27024;54.068;12.116;2023-02-03T02:59:51;3.25;;;1.40;;
583;SDS011;27024;54.068;12.116;2023-02-03T03:02:18;3.92;;;1.50;;
583;SDS011;27024;54.068;12.116;2023-02-03T03:04:46;3.58;;;1.35;;
583;SDS011;27024;54.068;12.116;2023-02-03T03:07:22;4.28;;;1.70;;
583;SDS011;27024;54.068;12.116;2023-02-03T03:09:54;6.30;;;1.60;;
583;SDS011;27024;54.068;12.116;2023-02-03T03:12:28;5.13;;;1.77;;
583;SDS011;27024;54.068;12.116;2023-02-03T03:14:58;5.05;;;2.20;;
583;SDS011;27024;54.068;12.116;2023-02-03T03:17:31;5.35;;;2.20;;
583;SDS011;27024;54.068;12.116;2023-02-03T03:20:01;7.03;;;2.45;;
583;SDS011;27024;54.068;12.116;2023-02-03T03:22:33;6.03;;;2.53;;
583;SDS011;27024;54.068;12.116;2023-02-03T03:25:05;4.40;;;1.95;;
583;SDS011;27024;54.068;12.116;2023-02-03T03:27:40;4.40;;;1.90;;
583;SDS011;27024;54.068;12.116;2023-02-03T03:30:15;4.80;;;2.08;;
583;SDS011;27024;54.068;12.116;2023-02-03T03:32:48;6.00;;;2.50;;
583;SDS011;27024;54.068;12.116;2023-02-03T03:35:16;7.70;;;3.15;;
583;SDS011;27024;54.068;12.116;2023-02-03T03:37:44;7.05;;;2.80;;
583;SDS011;27024;54.068;12.116;2023-02-03T03:40:19;9.82;;;3.58;;
583;SDS011;27024;54.068;12.116;2023-02-03T03:43:21;8.23;;;3.38;;
583;SDS011;27024;54.068;12.116;2023-02-03T03:45:54;7.53;;;2.92;;
583;SDS011;27024;54.068;12.116;2023-02-03T03:48:36;8.80;;;3.78;;
583;SDS011;27024;54.068;12.116;2023-02-03T03:51:14;10.73;;;3.65;;
583;SDS011;27024;54.068;12.116;2023-02-03T03:53:45;12.65;;;4.40;;
583;SDS011;27024;54.068;12.116;2023-02-03T03:56:17;11.02;;;4.55;;
583;SDS011;27024;54.068;12.116;2023-02-03T03:58:47;9.23;;;4.32;;
583;SDS011;27024;54.068;12.116;2023-02-03T04:01:17;10.85;;;4.60;;
583;SDS011;27024;54.068;12.116;2023-02-03T04:03:49;9.85;;;4.63;;
583;SDS011;27024;54.068;12.116;2023-02-03T04:06:20;10.98;;;4.38;;
583;SDS011;27024;54.068;12.116;2023-02-03T04:08:47;13.32;;;5.43;;
583;SDS011;27024;54.068;12.116;2023-02-03T04:11:14;14.13;;;5.32;;
583;SDS011;27024;54.068;12.116;2023-02-03T04:14:01;16.30;;;5.50;;
583;SDS011;27024;54.068;12.116;2023-02-03T04:16:27;20.00;;;5.93;;
583;SDS011;27024;54.068;12.116;2023-02-03T04:18:54;14.93;;;5.88;;
583;SDS011;27024;54.068;12.116;2023-02-03T04:21:21;16.63;;;5.80;;
583;SDS011;27024;54.068;12.116;2023-02-03T04:23:48;14.45;;;6.38;;
583;SDS011;27024;54.068;12.116;2023-02-03T04:26:15;16.08;;;5.32;;
583;SDS011;27024;54.068;12.116;2023-02-03T04:28:43;15.68;;;5.97;;
583;SDS011;27024;54.068;12.116;2023-02-03T04:31:10;22.55;;;6.72;;
583;SDS011;27024;54.068;12.116;2023-02-03T04:33:37;20.52;;;6.25;;
583;SDS011;27024;54.068;12.116;2023-02-03T04:36:03;18.88;;;6.70;;
583;SDS011;27024;54.068;12.116;2023-02-03T04:38:30;25.90;;;7.00;;
583;SDS011;27024;54.068;12.116;2023-02-03T04:40:58;22.17;;;6.22;;
583;SDS011;27024;54.068;12.116;2023-02-03T04:43:25;24.35;;;6.30;;
583;SDS011;27024;54.068;12.116;2023-02-03T04:45:52;21.63;;;6.32;;
583;SDS011;27024;54.068;12.116;2023-02-03T04:48:19;18.90;;;5.55;;
583;SDS011;27024;54.068;12.116;2023-02-03T04:50:45;16.40;;;4.80;;
583;SDS011;27024;54.068;12.116;2023-02-03T04:53:12;16.50;;;4.97;;
583;SDS011;27024;54.068;12.116;2023-02-03T04:55:44;17.33;;;4.05;;
583;SDS011;27024;54.068;12.116;2023-02-03T04:58:12;16.48;;;3.95;;
583;SDS011;27024;54.068;12.116;2023-02-03T05:00:39;15.50;;;3.08;;
583;SDS011;27024;54.068;12.116;2023-02-03T05:03:06;13.15;;;3.35;;
583;SDS011;27024;54.068;12.116;2023-02-03T05:05:33;10.55;;;2.42;;
583;SDS011;27024;54.068;12.116;2023-02-03T05:08:00;13.38;;;2.78;;
583;SDS011;27024;54.068;12.116;2023-02-03T05:10:26;13.43;;;2.90;;
583;SDS011;27024;54.068;12.116;2023-02-03T05:12:54;14.27;;;2.85;;
583;SDS011;27024;54.068;12.116;2023-02-03T05:15:21;9.82;;;2.60;;
583;SDS011;27024;54.068;12.116;2023-02-03T05:17:50;10.20;;;1.85;;
583;SDS011;27024;54.068;12.116;2023-02-03T05:20:17;11.10;;;1.80;;
583;SDS011;27024;54.068;12.116;2023-02-03T05:22:44;12.02;;;2.13;;
583;SDS011;27024;54.068;12.116;2023-02-03T05:25:11;8.68;;;1.52;;
583;SDS011;27024;54.068;12.116;2023-02-03T05:27:39;7.05;;;1.63;;
583;SDS011;27024;54.068;12.116;2023-02-03T05:30:07;6.30;;;1.50;;
583;SDS011;27024;54.068;12.116;2023-02-03T05:32:35;7.35;;;1.38;;
583;SDS011;27024;54.068;12.116;2023-02-03T05:35:02;7.68;;;1.38;;
583;SDS011;27024;54.068;12.116;2023-02-03T05:37:28;6.20;;;1.35;;
583;SDS011;27024;54.068;12.116;2023-02-03T05:39:55;8.70;;;1.38;;
583;SDS011;27024;54.068;12.116;2023-02-03T05:42:48;9.90;;;2.30;;
583;SDS011;27024;54.068;12.116;2023-02-03T05:45:15;6.50;;;1.48;;
583;SDS011;27024;54.068;12.116;2023-02-03T05:47:42;8.95;;;2.00;;
583;SDS011;27024;54.068;12.116;2023-02-03T05:50:09;12.35;;;1.75;;
583;SDS011;27024;54.068;12.116;2023-02-03T05:52:36;14.68;;;2.30;;
583;SDS011;27024;54.068;12.116;2023-02-03T05:55:03;12.52;;;1.85;;
583;SDS011;27024;54.068;12.116;2023-02-03T05:57:30;9.77;;;1.73;;
583;SDS011;27024;54.068;12.116;2023-02-03T05:59:57;7.32;;;1.60;;
583;SDS011;27024;54.068;12.116;2023-02-03T06:02:24;12.15;;;1.77;;
583;SDS011;27024;54.068;12.116;2023-02-03T06:04:51;8.30;;;1.40;;
583;SDS011;27024;54.068;12.116;2023-02-03T06:07:17;8.30;;;1.33;;
583;SDS011;27024;54.068;12.116;2023-02-03T06:09:44;10.18;;;1.63;;
583;SDS011;27024;54.068;12.116;2023-02-03T06:12:11;10.88;;;1.25;;
583;SDS011;27024;54.068;12.116;2023-02-03T06:14:38;5.78;;;1.20;;
583;SDS011;27024;54.068;12.116;2023-02-03T06:17:05;6.03;;;1.30;;
583;SDS011;27024;54.068;12.116;2023-02-03T06:19:31;9.95;;;1.98;;
583;SDS011;27024;54.068;12.116;2023-02-03T06:21:58;7.20;;;1.40;;
583;SDS011;27024;54.068;12.116;2023-02-03T06:24:25;5.35;;;0.90;;
583;SDS011;27024;54.068;12.116;2023-02-03T06:26:51;3.10;;;0.52;;
583;SDS011;27024;54.068;12.116;2023-02-03T06:29:18;4.35;;;0.80;;
583;SDS011;27024;54.068;12.116;2023-02-03T06:31:45;5.88;;;0.70;;
583;SDS011;27024;54.068;12.116;2023-02-03T06:34:12;4.00;;;0.85;;
583;SDS011;27024;54.068;12.116;2023-02-03T06:36:39;2.60;;;0.50;;
583;SDS011;27024;54.068;12.116;2023-02-03T06:39:05;3.95;;;0.80;;
583;SDS011;27024;54.068;12.116;2023-02-03T06:41:32;5.25;;;0.90;;
583;SDS011;27024;54.068;12.116;2023-02-03T06:43:59;4.88;;;0.82;;
583;SDS011;27024;54.068;12.116;2023-02-03T06:46:26;5.18;;;0.77;;
583;SDS011;27024;54.068;12.116;2023-02-03T06:48:55;6.55;;;0.82;;
583;SDS011;27024;54.068;12.116;2023-02-03T06:51:22;1.98;;;0.75;;
583;SDS011;27024;54.068;12.116;2023-02-03T06:53:50;6.38;;;1.50;;
583;SDS011;27024;54.068;12.116;2023-02-03T06:56:17;5.68;;;0.93;;
583;SDS011;27024;54.068;12.116;2023-02-03T06:58:43;4.25;;;0.65;;
583;SDS011;27024;54.068;12.116;2023-02-03T07:01:10;3.22;;;0.70;;
583;SDS011;27024;54.068;12.116;2023-02-03T07:03:37;3.88;;;0.52;;
583;SDS011;27024;54.068;12.116;2023-02-03T07:06:04;2.63;;;0.65;;
583;SDS011;27024;54.068;12.116;2023-02-03T07:08:31;3.15;;;0.40;;
583;SDS011;27024;54.068;12.116;2023-02-03T07:10:58;3.70;;;0.60;;
583;SDS011;27024;54.068;12.116;2023-02-03T07:13:24;4.55;;;0.68;;
583;SDS011;27024;54.068;12.116;2023-02-03T07:15:51;5.28;;;1.58;;
583;SDS011;27024;54.068;12.116;2023-02-03T07:18:18;4.40;;;1.00;;
583;SDS011;27024;54.068;12.116;2023-02-03T07:21:09;7.50;;;1.10;;
583;SDS011;27024;54.068;12.116;2023-02-03T07:23:36;5.53;;;1.00;;
583;SDS011;27024;54.068;12.116;2023-02-03T07:26:04;4.30;;;0.70;;
583;SDS011;27024;54.068;12.116;2023-02-03T07:28:35;4.43;;;0.70;;
583;SDS011;27024;54.068;12.116;2023-02-03T07:31:02;3.30;;;0.70;;
583;SDS011;27024;54.068;12.116;2023-02-03T07:33:30;1.73;;;0.55;;
583;SDS011;27024;54.068;12.116;2023-02-03T07:35:57;2.45;;;0.45;;
583;SDS011;27024;54.068;12.116;2023-02-03T07:38:25;2.40;;;0.60;;
583;SDS011;27024;54.068;12.116;2023-02-03T07:40:53;2.33;;;0.40;;
583;SDS011;27024;54.068;12.116;2023-02-03T07:43:20;5.88;;;0.52;;
583;SDS011;27024;54.068;12.116;2023-02-03T07:45:47;2.25;;;0.50;;
583;SDS011;27024;54.068;12.116;2023-02-03T07:48:15;5.38;;;0.60;;
583;SDS011;27024;54.068;12.116;2023-02-03T07:50:41;3.70;;;0.47;;
583;SDS011;27024;54.068;12.116;2023-02-03T07:53:08;3.03;;;0.52;;
583;SDS011;27024;54.068;12.116;2023-02-03T07:55:38;2.38;;;0.55;;
583;SDS011;27024;54.068;12.116;2023-02-03T07:58:05;3.25;;;0.40;;
583;SDS011;27024;54.068;12.116;2023-02-03T08:00:32;2.10;;;0.38;;
583;SDS011;27024;54.068;12.116;2023-02-03T08:03:00;3.75;;;0.38;;
583;SDS011;27024;54.068;12.116;2023-02-03T08:05:27;2.47;;;0.40;;
583;SDS011;27024;54.068;12.116;2023-02-03T08:07:55;5.43;;;0.80;;
583;SDS011;27024;54.068;12.116;2023-02-03T08:10:23;3.28;;;0.47;;
583;SDS011;27024;54.068;12.116;2023-02-03T08:12:54;4.03;;;0.45;;
583;SDS011;27024;54.068;12.116;2023-02-03T08:15:21;6.40;;;1.05;;
583;SDS011;27024;54.068;12.116;2023-02-03T08:17:48;9.05;;;0.88;;
583;SDS011;27024;54.068;12.116;2023-02-03T08:20:15;5.03;;;0.88;;
583;SDS011;27024;54.068;12.116;2023-02-03T08:22:43;7.18;;;1.08;;
583;SDS011;27024;54.068;12.116;2023-02-03T08:25:10;7.88;;;1.48;;
583;SDS011;27024;54.068;12.116;2023-02-03T08:27:37;10.25;;;0.90;;
583;SDS011;27024;54.068;12.116;2023-02-03T08:30:05;7.97;;;0.88;;
583;SDS011;27024;54.068;12.116;2023-02-03T08:32:33;10.80;;;1.15;;
583;SDS011;27024;54.068;12.116;2023-02-03T08:35:00;11.70;;;1.10;;
583;SDS011;27024;54.068;12.116;2023-02-03T08:37:27;12.85;;;1.20;;
583;SDS011;27024;54.068;12.116;2023-02-03T08:39:57;15.77;;;1.30;;
583;SDS011;27024;54.068;12.116;2023-02-03T08:42:24;15.18;;;1.38;;
583;SDS011;27024;54.068;12.116;2023-02-03T08:44:52;18.15;;;1.73;;
583;SDS011;27024;54.068;12.116;2023-02-03T08:47:19;13.73;;;1.17;;
583;SDS011;27024;54.068;12.116;2023-02-03T08:49:46;15.98;;;1.52;;
583;SDS011;27024;54.068;12.116;2023-02-03T08:52:13;13.85;;;1.52;;
583;SDS011;27024;54.068;12.116;2023-02-03T08:54:44;16.80;;;1.35;;
583;SDS011;27024;54.068;12.116;2023-02-03T08:57:10;15.45;;;1.67;;
583;SDS011;27024;54.068;12.116;2023-02-03T08:59:39;15.88;;;1.23;;
583;SDS011;27024;54.068;12.116;2023-02-03T09:02:07;16.83;;;2.10;;
583;SDS011;27024;54.068;12.116;2023-02-03T09:04:39;19.13;;;1.83;;
583;SDS011;27024;54.068;12.116;2023-02-03T09:07:06;20.63;;;2.25;;
583;SDS011;27024;54.068;12.116;2023-02-03T09:09:32;19.48;;;2.10;;
583;SDS011;27024;54.068;12.116;2023-02-03T09:12:02;24.17;;;2.40;;
583;SDS011;27024;54.068;12.116;2023-02-03T09:14:31;27.90;;;2.65;;
583;SDS011;27024;54.068;12.116;2023-02-03T09:16:59;27.27;;;2.65;;
583;SDS011;27024;54.068;12.116;2023-02-03T09:19:27;31.40;;;3.28;;
583;SDS011;27024;54.068;12.116;2023-02-03T09:21:54;35.10;;;3.70;;
583;SDS011;27024;54.068;12.116;2023-02-03T09:24:22;34.15;;;4.00;;
583;SDS011;27024;54.068;12.116;2023-02-03T09:26:50;30.55;;;3.13;;
583;SDS011;27024;54.068;12.116;2023-02-03T09:29:16;29.88;;;3.28;;
583;SDS011;27024;54.068;12.116;2023-02-03T09:31:43;21.05;;;3.15;;
583;SDS011;27024;54.068;12.116;2023-02-03T09:34:12;30.98;;;4.03;;
583;SDS011;27024;54.068;12.116;2023-02-03T09:36:39;33.47;;;3.70;;
583;SDS011;27024;54.068;12.116;2023-02-03T09:39:08;30.38;;;3.33;;
583;SDS011;27024;54.068;12.116;2023-02-03T09:47:26;30.58;;;3.10;;
583;SDS011;27024;54.068;12.116;2023-02-03T09:49:56;37.30;;;4.05;;
583;SDS011;27024;54.068;12.116;2023-02-03T09:52:30;36.97;;;3.80;;
583;SDS011;27024;54.068;12.116;2023-02-03T09:55:23;36.55;;;4.63;;
583;SDS011;27024;54.068;12.116;2023-02-03T09:57:52;34.92;;;4.03;;
583;SDS011;27024;54.068;12.116;2023-02-03T10:00:26;32.17;;;4.03;;
583;SDS011;27024;54.068;12.116;2023-02-03T10:03:07;34.25;;;4.47;;
583;SDS011;27024;54.068;12.116;2023-02-03T10:20:17;41.72;;;4.13;;
583;SDS011;27024;54.068;12.116;2023-02-03T10:22:26;37.80;;;3.88;;
583;SDS011;27024;54.068;12.116;2023-02-03T10:24:58;39.53;;;4.53;;
583;SDS011;27024;54.068;12.116;2023-02-03T10:27:31;38.05;;;3.50;;
583;SDS011;27024;54.068;12.116;2023-02-03T10:30:05;39.13;;;4.50;;
583;SDS011;27024;54.068;12.116;2023-02-03T10:33:32;27.23;;;3.60;;
583;SDS011;27024;54.068;12.116;2023-02-03T10:35:45;30.95;;;3.28;;
583;SDS011;27024;54.068;12.116;2023-02-03T10:38:31;32.75;;;4.00;;
583;SDS011;27024;54.068;12.116;2023-02-03T10:41:01;34.20;;;3.75;;
583;SDS011;27024;54.068;12.116;2023-02-03T10:43:29;33.80;;;4.38;;
583;SDS011;27024;54.068;12.116;2023-02-03T10:46:17;29.20;;;3.28;;
583;SDS011;27024;54.068;12.116;2023-02-03T10:48:46;29.50;;;4.10;;
583;SDS011;27024;54.068;12.116;2023-02-03T10:51:21;29.55;;;3.25;;
583;SDS011;27024;54.068;12.116;2023-02-03T10:53:52;28.95;;;3.10;;
583;SDS011;27024;54.068;12.116;2023-02-03T10:56:34;33.28;;;3.35;;
583;SDS011;27024;54.068;12.116;2023-02-03T10:59:03;24.42;;;3.22;;
583;SDS011;27024;54.068;12.116;2023-02-03T11:01:39;28.17;;;3.33;;
583;SDS011;27024;54.068;12.116;2023-02-03T11:04:25;22.45;;;2.70;;
583;SDS011;27024;54.068;12.116;2023-02-03T11:09:37;24.33;;;2.15;;
583;SDS011;27024;54.068;12.116;2023-02-03T11:12:13;23.63;;;2.60;;
583;SDS011;27024;54.068;12.116;2023-02-03T11:14:43;18.08;;;2.25;;
583;SDS011;27024;54.068;12.116;2023-02-03T11:19:49;22.30;;;2.28;;
583;SDS011;27024;54.068;12.116;2023-02-03T11:24:58;18.77;;;2.50;;
583;SDS011;27024;54.068;12.116;2023-02-03T11:27:30;18.98;;;2.75;;
583;SDS011;27024;54.068;12.116;2023-02-03T11:30:32;23.00;;;2.75;;
583;SDS011;27024;54.068;12.116;2023-02-03T11:32:55;20.33;;;2.13;;
583;SDS011;27024;54.068;12.116;2023-02-03T11:35:27;23.85;;;2.00;;
583;SDS011;27024;54.068;12.116;2023-02-03T11:37:57;22.35;;;2.45;;
583;SDS011;27024;54.068;12.116;2023-02-03T11:40:27;19.67;;;2.30;;
583;SDS011;27024;54.068;12.116;2023-02-03T11:43:04;24.33;;;2.65;;
583;SDS011;27024;54.068;12.116;2023-02-03T11:45:41;20.77;;;2.47;;
583;SDS011;27024;54.068;12.116;2023-02-03T12:08:12;26.60;;;3.92;;
583;SDS011;27024;54.068;12.116;2023-02-03T12:10:51;28.45;;;3.40;;
583;SDS011;27024;54.068;12.116;2023-02-03T12:13:39;31.90;;;4.05;;
583;SDS011;27024;54.068;12.116;2023-02-03T12:18:57;29.73;;;3.63;;
583;SDS011;27024;54.068;12.116;2023-02-03T12:24:30;24.55;;;3.10;;
583;SDS011;27024;54.068;12.116;2023-02-03T12:27:23;33.13;;;3.55;;
583;SDS011;27024;54.068;12.116;2023-02-03T12:29:58;31.20;;;3.53;;
583;SDS011;27024;54.068;12.116;2023-02-03T12:32:35;24.90;;;3.50;;
583;SDS011;27024;54.068;12.116;2023-02-03T12:35:17;23.83;;;2.95;;
583;SDS011;27024;54.068;12.116;2023-02-03T12:40:35;33.45;;;3.55;;
583;SDS011;27024;54.068;12.116;2023-02-03T12:45:56;26.38;;;3.60;;
583;SDS011;27024;54.068;12.116;2023-02-03T12:48:28;30.55;;;4.07;;
583;SDS011;27024;54.068;12.116;2023-02-03T12:51:02;23.98;;;3.28;;
583;SDS011;27024;54.068;12.116;2023-02-03T12:53:37;27.33;;;2.80;;
583;SDS011;27024;54.068;12.116;2023-02-03T12:56:08;33.40;;;3.22;;
583;SDS011;27024;54.068;12.116;2023-02-03T12:58:40;25.92;;;3.10;;
583;SDS011;27024;54.068;12.116;2023-02-03T13:04:02;31.13;;;3.40;;
583;SDS011;27024;54.068;12.116;2023-02-03T13:09:37;33.13;;;3.22;;
583;SDS011;27024;54.068;12.116;2023-02-03T13:12:13;27.55;;;3.50;;
583;SDS011;27024;54.068;12.116;2023-02-03T13:20:33;33.35;;;3.58;;
583;SDS011;27024;54.068;12.116;2023-02-03T13:23:03;29.13;;;3.67;;
583;SDS011;27024;54.068;12.116;2023-02-03T13:39:39;37.60;;;3.90;;
583;SDS011;27024;54.068;12.116;2023-02-03T13:42:30;25.40;;;3.38;;
583;SDS011;27024;54.068;12.116;2023-02-03T13:45:02;27.90;;;3.20;;
583;SDS011;27024;54.068;12.116;2023-02-03T13:47:37;29.75;;;3.38;;
583;SDS011;27024;54.068;12.116;2023-02-03T13:50:05;30.48;;;3.45;;
583;SDS011;27024;54.068;12.116;2023-02-03T13:52:59;35.85;;;4.38;;
583;SDS011;27024;54.068;12.116;2023-02-03T13:55:40;32.90;;;3.88;;
583;SDS011;27024;54.068;12.116;2023-02-03T13:58:18;32.83;;;4.18;;
583;SDS011;27024;54.068;12.116;2023-02-03T14:03:39;33.75;;;3.85;;
583;SDS011;27024;54.068;12.116;2023-02-03T14:09:20;32.35;;;3.67;;
583;SDS011;27024;54.068;12.116;2023-02-03T14:17:06;33.17;;;3.40;;
583;SDS011;27024;54.068;12.116;2023-02-03T14:19:54;32.08;;;3.38;;
583;SDS011;27024;54.068;12.116;2023-02-03T14:22:21;30.05;;;3.47;;
583;SDS011;27024;54.068;12.116;2023-02-03T14:24:47;36.55;;;3.47;;
583;SDS011;27024;54.068;12.116;2023-02-03T14:27:22;34.75;;;3.25;;
583;SDS011;27024;54.068;12.116;2023-02-03T14:30:05;35.67;;;3.95;;
583;SDS011;27024;54.068;12.116;2023-02-03T14:32:47;27.20;;;3.38;;
583;SDS011;27024;54.068;12.116;2023-02-03T14:38:04;34.95;;;3.65;;
583;SDS011;27024;54.068;12.116;2023-02-03T14:40:38;33.80;;;4.00;;
583;SDS011;27024;54.068;12.116;2023-02-03T14:45:58;31.95;;;4.82;;
583;SDS011;27024;54.068;12.116;2023-02-03T14:55:01;33.40;;;3.60;;
583;SDS011;27024;54.068;12.116;2023-02-03T15:00:06;36.03;;;3.80;;
583;SDS011;27024;54.068;12.116;2023-02-03T15:03:13;28.17;;;3.75;;
583;SDS011;27024;54.068;12.116;2023-02-03T15:05:45;33.97;;;4.50;;
583;SDS011;27024;54.068;12.116;2023-02-03T15:13:56;33.65;;;4.95;;
583;SDS011;27024;54.068;12.116;2023-02-03T15:16:41;31.35;;;3.67;;
583;SDS011;27024;54.068;12.116;2023-02-03T15:19:19;37.83;;;4.25;;
583;SDS011;27024;54.068;12.116;2023-02-03T15:21:49;37.28;;;4.85;;
583;SDS011;27024;54.068;12.116;2023-02-03T15:24:18;37.60;;;4.40;;
583;SDS011;27024;54.068;12.116;2023-02-03T15:26:52;35.72;;;3.97;;
583;SDS011;27024;54.068;12.116;2023-02-03T15:29:22;30.05;;;4.10;;
583;SDS011;27024;54.068;12.116;2023-02-03T15:34:27;31.35;;;3.97;;
583;SDS011;27024;54.068;12.116;2023-02-03T15:36:59;34.28;;;3.88;;
583;SDS011;27024;54.068;12.116;2023-02-03T15:39:42;38.63;;;3.72;;
583;SDS011;27024;54.068;12.116;2023-02-03T15:45:29;28.02;;;4.13;;
583;SDS011;27024;54.068;12.116;2023-02-03T15:48:03;29.40;;;3.80;;
583;SDS011;27024;54.068;12.116;2023-02-03T15:50:43;33.25;;;3.47;;
583;SDS011;27024;54.068;12.116;2023-02-03T15:53:19;32.28;;;4.20;;
583;SDS011;27024;54.068;12.116;2023-02-03T15:55:53;30.25;;;3.65;;
583;SDS011;27024;54.068;12.116;2023-02-03T15:58:24;32.25;;;3.72;;
583;SDS011;27024;54.068;12.116;2023-02-03T16:01:12;29.75;;;4.28;;
583;SDS011;27024;54.068;12.116;2023-02-03T16:03:50;20.90;;;3.15;;
583;SDS011;27024;54.068;12.116;2023-02-03T16:06:22;31.67;;;3.35;;
583;SDS011;27024;54.068;12.116;2023-02-03T16:08:53;28.17;;;3.50;;
583;SDS011;27024;54.068;12.116;2023-02-03T16:13:47;33.05;;;3.85;;
583;SDS011;27024;54.068;12.116;2023-02-03T16:16:15;31.77;;;3.70;;
583;SDS011;27024;54.068;12.116;2023-02-03T16:18:54;30.02;;;3.63;;
583;SDS011;27024;54.068;12.116;2023-02-03T16:21:32;27.27;;;3.42;;
583;SDS011;27024;54.068;12.116;2023-02-03T16:24:02;24.45;;;2.95;;
583;SDS011;27024;54.068;12.116;2023-02-03T16:26:31;30.30;;;3.40;;
583;SDS011;27024;54.068;12.116;2023-02-03T16:31:48;30.58;;;3.30;;
583;SDS011;27024;54.068;12.116;2023-02-03T16:34:34;27.95;;;3.10;;
583;SDS011;27024;54.068;12.116;2023-02-03T16:37:23;28.27;;;3.92;;
583;SDS011;27024;54.068;12.116;2023-02-03T16:40:11;24.83;;;3.22;;
583;SDS011;27024;54.068;12.116;2023-02-03T16:42:58;26.90;;;3.00;;
583;SDS011;27024;54.068;12.116;2023-02-03T16:45:43;24.88;;;2.97;;
583;SDS011;27024;54.068;12.116;2023-02-03T16:48:29;26.63;;;2.85;;
583;SDS011;27024;54.068;12.116;2023-02-03T16:51:15;24.08;;;2.75;;
583;SDS011;27024;54.068;12.116;2023-02-03T16:53:43;21.95;;;2.58;;
583;SDS011;27024;54.068;12.116;2023-02-03T16:56:11;26.67;;;2.75;;
583;SDS011;27024;54.068;12.116;2023-02-03T16:58:39;19.92;;;1.92;;
583;SDS011;27024;54.068;12.116;2023-02-03T17:01:06;24.80;;;2.88;;
583;SDS011;27024;54.068;12.116;2023-02-03T17:03:35;26.63;;;3.35;;
583;SDS011;27024;54.068;12.116;2023-02-03T17:06:04;24.27;;;2.20;;
583;SDS011;27024;54.068;12.116;2023-02-03T17:08:33;23.83;;;2.70;;
583;SDS011;27024;54.068;12.116;2023-02-03T17:11:01;21.67;;;2.22;;
583;SDS011;27024;54.068;12.116;2023-02-03T17:13:48;31.50;;;3.42;;
583;SDS011;27024;54.068;12.116;2023-02-03T17:16:17;19.77;;;3.35;;
583;SDS011;27024;54.068;12.116;2023-02-03T17:18:46;22.30;;;2.33;;
583;SDS011;27024;54.068;12.116;2023-02-03T17:21:16;21.85;;;2.50;;
583;SDS011;27024;54.068;12.116;2023-02-03T17:23:46;26.40;;;2.85;;
583;SDS011;27024;54.068;12.116;2023-02-03T17:26:14;16.05;;;3.05;;
583;SDS011;27024;54.068;12.116;2023-02-03T17:28:43;32.83;;;2.95;;
583;SDS011;27024;54.068;12.116;2023-02-03T17:31:11;20.48;;;2.63;;
583;SDS011;27024;54.068;12.116;2023-02-03T17:33:40;20.75;;;2.20;;
583;SDS011;27024;54.068;12.116;2023-02-03T17:36:17;20.00;;;3.08;;
583;SDS011;27024;54.068;12.116;2023-02-03T17:38:47;20.23;;;2.10;;
583;SDS011;27024;54.068;12.116;2023-02-03T17:41:34;20.77;;;2.72;;
583;SDS011;27024;54.068;12.116;2023-02-03T17:44:18;23.38;;;2.35;;
583;SDS011;27024;54.068;12.116;2023-02-03T17:47:02;19.48;;;1.98;;
583;SDS011;27024;54.068;12.116;2023-02-03T17:49:48;22.80;;;2.50;;
583;SDS011;27024;54.068;12.116;2023-02-03T17:52:32;16.25;;;1.60;;